createdAt,value
2019-01-14T00:00:53.953Z,1002.14
2019-01-14T00:02:03.036Z,1002.21
2019-01-14T00:03:12.138Z,1002.19
2019-01-14T00:04:20.981Z,1002.19
2019-01-14T00:05:29.865Z,1002.25
2019-01-14T00:06:38.961Z,1002.24
2019-01-14T00:07:48.028Z,1002.31
2019-01-14T00:08:57.643Z,1002.33
2019-01-14T00:10:07.353Z,1002.33
2019-01-14T00:11:16.416Z,1002.35
2019-01-14T00:12:25.233Z,1002.38
2019-01-14T00:13:35.113Z,1002.43
2019-01-14T00:14:44.441Z,1002.46
2019-01-14T00:15:53.636Z,1002.53
2019-01-14T00:17:02.741Z,1002.5
2019-01-14T00:18:11.558Z,1002.53
2019-01-14T00:19:20.388Z,1002.55
2019-01-14T00:20:29.472Z,1002.58
2019-01-14T00:21:38.654Z,1002.59
2019-01-14T00:22:47.722Z,1002.6
2019-01-14T00:23:56.535Z,1002.65
2019-01-14T00:25:05.367Z,1002.63
2019-01-14T00:26:14.734Z,1002.65
2019-01-14T00:27:23.908Z,1002.66
2019-01-14T00:28:32.727Z,1002.77
2019-01-14T00:29:41.561Z,1002.76
2019-01-14T00:30:50.361Z,1002.84
2019-01-14T00:31:59.436Z,1002.86
2019-01-14T00:33:08.254Z,1002.95
2019-01-14T00:34:17.095Z,1002.92
2019-01-14T00:35:26.192Z,1002.98
2019-01-14T00:36:35.328Z,1002.97
2019-01-14T00:37:44.427Z,1003.08
2019-01-14T00:38:53.316Z,1003.11
2019-01-14T00:40:02.401Z,1003.11
2019-01-14T00:41:11.743Z,1003.09
2019-01-14T00:42:20.560Z,1003.16
2019-01-14T00:43:29.658Z,1003.19
2019-01-14T00:44:38.742Z,1003.11
2019-01-14T00:45:47.596Z,1003.16
2019-01-14T00:46:56.942Z,1003.16
2019-01-14T00:48:06.027Z,1003.21
2019-01-14T00:49:15.371Z,1003.14
2019-01-14T00:50:24.777Z,1003.14
2019-01-14T00:51:33.856Z,1003.21
2019-01-14T00:52:42.944Z,1003.26
2019-01-14T00:53:52.048Z,1003.2
2019-01-14T00:55:01.171Z,1003.27
2019-01-14T00:56:10.372Z,1003.34
2019-01-14T00:57:19.736Z,1003.32
2019-01-14T00:58:28.549Z,1003.3
2019-01-14T00:59:37.616Z,1003.33
2019-01-14T01:00:46.778Z,1003.42
2019-01-14T01:01:56.239Z,1003.41
2019-01-14T01:03:05.054Z,1003.48
2019-01-14T01:04:13.867Z,1003.57
2019-01-14T01:05:22.675Z,1003.6
2019-01-14T01:06:31.514Z,1003.62
2019-01-14T01:07:40.647Z,1003.63
2019-01-14T01:08:49.466Z,1003.66
2019-01-14T01:09:58.538Z,1003.7
2019-01-14T01:11:07.341Z,1003.72
2019-01-14T01:12:16.408Z,1003.77
2019-01-14T01:13:25.324Z,1003.79
2019-01-14T01:14:34.125Z,1003.76
2019-01-14T01:15:43.195Z,1003.83
2019-01-14T01:16:52.293Z,1003.79
2019-01-14T01:18:01.110Z,1003.87
2019-01-14T01:19:10.451Z,1003.89
2019-01-14T01:20:19.254Z,1003.85
2019-01-14T01:21:28.653Z,1003.87
2019-01-14T01:22:37.753Z,1003.95
2019-01-14T01:23:47.113Z,1003.97
2019-01-14T01:24:56.189Z,1003.99
2019-01-14T01:26:05.270Z,1004.05
2019-01-14T01:27:14.886Z,1004.06
2019-01-14T01:28:23.977Z,1004.11
2019-01-14T01:29:32.799Z,1004.11
2019-01-14T01:30:41.638Z,1004.14
2019-01-14T01:31:50.717Z,1004.24
2019-01-14T01:33:00.145Z,1004.21
2019-01-14T01:34:08.992Z,1004.22
2019-01-14T01:35:17.818Z,1004.29
2019-01-14T01:36:31.789Z,1004.25
2019-01-14T01:37:41.087Z,1004.34
2019-01-14T01:38:50.232Z,1004.29
2019-01-14T01:39:59.572Z,1004.25
2019-01-14T01:41:08.721Z,1004.36
2019-01-14T01:42:17.900Z,1004.4
2019-01-14T01:43:27.041Z,1004.46
2019-01-14T01:44:35.868Z,1004.45
2019-01-14T01:45:45.483Z,1004.45
2019-01-14T01:46:54.314Z,1004.42
2019-01-14T01:48:03.494Z,1004.42
2019-01-14T01:49:12.613Z,1004.45
2019-01-14T01:50:21.687Z,1004.41
2019-01-14T01:51:31.296Z,1004.42
2019-01-14T01:52:40.155Z,1004.4
2019-01-14T01:53:49.553Z,1004.4
2019-01-14T01:54:58.898Z,1004.41
2019-01-14T01:56:07.990Z,1004.49
2019-01-14T01:57:16.796Z,1004.47
2019-01-14T01:58:25.653Z,1004.5
2019-01-14T01:59:35.155Z,1004.49
2019-01-14T02:00:44.258Z,1004.5
2019-01-14T02:01:53.598Z,1004.53
2019-01-14T02:03:02.695Z,1004.52
2019-01-14T02:04:11.517Z,1004.56
2019-01-14T02:05:20.438Z,1004.58
2019-01-14T02:06:29.271Z,1004.69
2019-01-14T02:07:43.723Z,1004.75
2019-01-14T02:08:54.381Z,1004.81
2019-01-14T02:10:03.291Z,1004.83
2019-01-14T02:11:12.644Z,1004.75
2019-01-14T02:12:21.740Z,1004.8
2019-01-14T02:13:31.110Z,1004.86
2019-01-14T02:14:39.938Z,1004.8
2019-01-14T02:15:48.776Z,1004.91
2019-01-14T02:16:57.949Z,1004.88
2019-01-14T02:18:06.773Z,1004.86
2019-01-14T02:19:15.615Z,1004.91
2019-01-14T02:20:25.234Z,1004.89
2019-01-14T02:21:34.323Z,1004.88
2019-01-14T02:22:44.036Z,1004.88
2019-01-14T02:23:53.149Z,1004.97
2019-01-14T02:25:02.513Z,1004.97
2019-01-14T02:26:11.347Z,1005.06
2019-01-14T02:27:20.418Z,1005.09
2019-01-14T02:28:29.241Z,1005.09
2019-01-14T02:29:38.325Z,1005.13
2019-01-14T02:30:47.139Z,1005.13
2019-01-14T02:31:56.513Z,1005.16
2019-01-14T02:33:05.944Z,1005.15
2019-01-14T02:34:15.162Z,1005.22
2019-01-14T02:35:24.523Z,1005.27
2019-01-14T02:36:35.116Z,1005.29
2019-01-14T02:37:53.082Z,1005.26
2019-01-14T02:39:02.432Z,1005.42
2019-01-14T02:40:11.708Z,1005.31
2019-01-14T02:41:20.552Z,1005.28
2019-01-14T02:42:29.442Z,1005.26
2019-01-14T02:43:38.546Z,1005.29
2019-01-14T02:44:47.921Z,1005.26
2019-01-14T02:45:56.867Z,1005.3
2019-01-14T02:47:05.697Z,1005.26
2019-01-14T02:48:15.095Z,1005.3
2019-01-14T02:49:24.174Z,1005.29
2019-01-14T02:50:33.249Z,1005.27
2019-01-14T02:51:42.414Z,1005.3
2019-01-14T02:52:51.511Z,1005.31
2019-01-14T02:54:00.605Z,1005.28
2019-01-14T02:55:09.724Z,1005.28
2019-01-14T02:56:18.563Z,1005.28
2019-01-14T02:57:27.696Z,1005.36
2019-01-14T02:58:36.781Z,1005.33
2019-01-14T02:59:46.130Z,1005.37
2019-01-14T03:00:56.281Z,1005.39
2019-01-14T03:02:05.673Z,1005.41
2019-01-14T03:03:14.499Z,1005.4
2019-01-14T03:04:23.307Z,1005.4
2019-01-14T03:05:32.175Z,1005.41
2019-01-14T03:06:41.294Z,1005.43
2019-01-14T03:08:00.124Z,1005.44
2019-01-14T03:09:09.062Z,1005.5
2019-01-14T03:10:17.885Z,1005.43
2019-01-14T03:11:26.701Z,1005.5
2019-01-14T03:12:35.773Z,1005.49
2019-01-14T03:13:44.860Z,1005.51
2019-01-14T03:14:54.201Z,1005.53
2019-01-14T03:16:03.548Z,1005.47
2019-01-14T03:17:12.365Z,1005.54
2019-01-14T03:18:21.444Z,1005.56
2019-01-14T03:19:30.271Z,1005.52
2019-01-14T03:20:39.250Z,1005.55
2019-01-14T03:21:48.328Z,1005.54
2019-01-14T03:22:57.154Z,1005.6
2019-01-14T03:24:06.289Z,1005.58
2019-01-14T03:25:15.397Z,1005.64
2019-01-14T03:26:24.586Z,1005.63
2019-01-14T03:27:33.417Z,1005.71
2019-01-14T03:28:42.487Z,1005.72
2019-01-14T03:29:51.568Z,1005.71
2019-01-14T03:31:00.945Z,1005.66
2019-01-14T03:32:10.384Z,1005.73
2019-01-14T03:33:19.246Z,1005.73
2019-01-14T03:34:28.376Z,1005.71
2019-01-14T03:35:37.229Z,1005.8
2019-01-14T03:36:46.367Z,1005.75
2019-01-14T03:37:55.200Z,1005.86
2019-01-14T03:39:04.299Z,1005.79
2019-01-14T03:40:13.936Z,1005.79
2019-01-14T03:41:22.787Z,1005.87
2019-01-14T03:42:31.876Z,1005.85
2019-01-14T03:43:41.328Z,1005.82
2019-01-14T03:44:50.419Z,1005.82
2019-01-14T03:45:59.228Z,1005.86
2019-01-14T03:47:08.586Z,1005.84
2019-01-14T03:48:17.417Z,1005.86
2019-01-14T03:49:26.513Z,1005.91
2019-01-14T03:50:35.871Z,1005.9
2019-01-14T03:51:44.703Z,1005.87
2019-01-14T03:52:53.544Z,1005.94
2019-01-14T03:54:02.632Z,1005.97
2019-01-14T03:55:11.519Z,1006.05
2019-01-14T03:56:20.621Z,1005.99
2019-01-14T03:57:29.437Z,1006.06
2019-01-14T03:58:38.265Z,1006.03
2019-01-14T03:59:47.068Z,1006.1
2019-01-14T04:00:55.946Z,1006.25
2019-01-14T04:02:05.136Z,1006.29
2019-01-14T04:03:14.204Z,1006.32
2019-01-14T04:04:23.313Z,1006.43
2019-01-14T04:05:32.530Z,1006.29
2019-01-14T04:06:41.633Z,1006.34
2019-01-14T04:07:50.453Z,1006.43
2019-01-14T04:08:59.609Z,1006.48
2019-01-14T04:10:08.689Z,1006.48
2019-01-14T04:11:17.782Z,1006.5
2019-01-14T04:12:26.705Z,1006.6
2019-01-14T04:13:35.814Z,1006.6
2019-01-14T04:14:44.641Z,1006.59
2019-01-14T04:15:54.018Z,1006.7
2019-01-14T04:17:03.142Z,1006.73
2019-01-14T04:18:12.388Z,1006.67
2019-01-14T04:19:21.247Z,1006.64
2019-01-14T04:20:30.065Z,1006.66
2019-01-14T04:21:38.912Z,1006.68
2019-01-14T04:22:47.765Z,1006.67
2019-01-14T04:23:56.706Z,1006.63
2019-01-14T04:25:06.095Z,1006.6
2019-01-14T04:26:15.177Z,1006.6
2019-01-14T04:27:24.019Z,1006.59
2019-01-14T04:28:33.921Z,1006.6
2019-01-14T04:29:43.262Z,1006.6
2019-01-14T04:30:52.342Z,1006.64
2019-01-14T04:32:01.446Z,1006.6
2019-01-14T04:33:10.800Z,1006.67
2019-01-14T04:34:19.640Z,1006.6
2019-01-14T04:35:28.780Z,1006.65
2019-01-14T04:36:37.619Z,1006.69
2019-01-14T04:37:46.724Z,1006.7
2019-01-14T04:38:55.808Z,1006.74
2019-01-14T04:40:04.910Z,1006.72
2019-01-14T04:41:15.665Z,1006.74
2019-01-14T04:42:24.507Z,1006.7
2019-01-14T04:43:33.920Z,1006.67
2019-01-14T04:44:42.997Z,1006.63
2019-01-14T04:45:52.348Z,1006.67
2019-01-14T04:47:01.492Z,1006.69
2019-01-14T04:48:10.591Z,1006.71
2019-01-14T04:49:19.710Z,1006.78
2019-01-14T04:50:28.811Z,1006.68
2019-01-14T04:51:37.911Z,1006.73
2019-01-14T04:52:46.801Z,1006.78
2019-01-14T04:53:56.149Z,1006.77
2019-01-14T04:55:05.228Z,1006.71
2019-01-14T04:56:14.340Z,1006.78
2019-01-14T04:57:23.163Z,1006.82
2019-01-14T04:58:32.320Z,1006.85
2019-01-14T04:59:41.125Z,1006.87
2019-01-14T05:00:50.593Z,1006.89
2019-01-14T05:01:59.678Z,1006.95
2019-01-14T05:03:08.850Z,1006.97
2019-01-14T05:04:18.006Z,1006.96
2019-01-14T05:05:27.087Z,1006.96
2019-01-14T05:06:36.249Z,1007.03
2019-01-14T05:07:46.128Z,1007.07
2019-01-14T05:08:54.974Z,1007.15
2019-01-14T05:10:04.078Z,1007.2
2019-01-14T05:11:13.444Z,1007.25
2019-01-14T05:12:22.558Z,1007.19
2019-01-14T05:13:31.375Z,1007.27
2019-01-14T05:14:40.959Z,1007.28
2019-01-14T05:15:49.832Z,1007.27
2019-01-14T05:16:58.658Z,1007.26
2019-01-14T05:18:07.743Z,1007.27
2019-01-14T05:19:16.572Z,1007.33
2019-01-14T05:20:25.675Z,1007.42
2019-01-14T05:21:34.837Z,1007.34
2019-01-14T05:22:44.206Z,1007.37
2019-01-14T05:23:53.299Z,1007.21
2019-01-14T05:25:02.102Z,1007.23
2019-01-14T05:26:11.457Z,1007.21
2019-01-14T05:27:20.351Z,1007.18
2019-01-14T05:28:29.471Z,1007.21
2019-01-14T05:29:38.834Z,1007.22
2019-01-14T05:30:47.905Z,1007.23
2019-01-14T05:31:56.734Z,1007.17
2019-01-14T05:33:05.648Z,1007.17
2019-01-14T05:34:14.751Z,1007.22
2019-01-14T05:35:23.846Z,1007.26
2019-01-14T05:36:32.940Z,1007.31
2019-01-14T05:37:41.782Z,1007.32
2019-01-14T05:38:50.994Z,1007.34
2019-01-14T05:39:59.828Z,1007.44
2019-01-14T05:41:08.636Z,1007.38
2019-01-14T05:42:17.764Z,1007.4
2019-01-14T05:43:26.582Z,1007.48
2019-01-14T05:44:36.703Z,1007.66
2019-01-14T05:45:45.805Z,1007.72
2019-01-14T05:46:54.902Z,1007.89
2019-01-14T05:48:03.984Z,1007.93
2019-01-14T05:49:12.800Z,1008.01
2019-01-14T05:50:21.901Z,1007.95
2019-01-14T05:51:31.528Z,1007.93
2019-01-14T05:52:41.391Z,1007.95
2019-01-14T05:53:51.001Z,1008.12
2019-01-14T05:55:00.334Z,1008.15
2019-01-14T05:56:09.519Z,1008.2
2019-01-14T05:57:19.149Z,1008.28
2019-01-14T05:58:28.237Z,1008.26
2019-01-14T05:59:37.321Z,1008.21
2019-01-14T06:00:46.121Z,1008.17
2019-01-14T06:01:54.956Z,1008.13
2019-01-14T06:03:04.030Z,1008.06
2019-01-14T06:04:13.181Z,1008.03
2019-01-14T06:05:22.325Z,1008.04
2019-01-14T06:06:31.136Z,1008.01
2019-01-14T06:07:44.808Z,1008.03
2019-01-14T06:08:54.053Z,1008.08
2019-01-14T06:10:03.155Z,1008.1
2019-01-14T06:11:11.985Z,1008.1
2019-01-14T06:12:21.086Z,1007.97
2019-01-14T06:13:30.360Z,1008.06
2019-01-14T06:14:39.590Z,1008.03
2019-01-14T06:15:48.425Z,1008.01
2019-01-14T06:16:57.551Z,1008.04
2019-01-14T06:18:06.661Z,1008.01
2019-01-14T06:19:15.859Z,1008.06
2019-01-14T06:20:24.694Z,1008.09
2019-01-14T06:21:33.489Z,1008.11
2019-01-14T06:22:43.079Z,1008.15
2019-01-14T06:23:52.677Z,1008.11
2019-01-14T06:25:01.599Z,1008.1
2019-01-14T06:26:10.458Z,1008.06
2019-01-14T06:27:19.525Z,1008.18
2019-01-14T06:28:28.346Z,1008.16
2019-01-14T06:29:37.185Z,1008.1
2019-01-14T06:30:46.016Z,1008.08
2019-01-14T06:31:55.389Z,1008.08
2019-01-14T06:33:04.498Z,1008.13
2019-01-14T06:34:13.855Z,1008.1
2019-01-14T06:35:22.962Z,1008.1
2019-01-14T06:36:31.856Z,1008.08
2019-01-14T06:37:41.275Z,1008.09
2019-01-14T06:38:56.769Z,1008.13
2019-01-14T06:40:06.129Z,1008.11
2019-01-14T06:41:15.493Z,1008.1
2019-01-14T06:42:24.842Z,1008.1
2019-01-14T06:43:33.915Z,1008.11
2019-01-14T06:44:42.994Z,1008.11
2019-01-14T06:45:51.808Z,1008.12
2019-01-14T06:47:00.880Z,1008.14
2019-01-14T06:48:09.986Z,1008.19
2019-01-14T06:49:19.093Z,1008.23
2019-01-14T06:50:27.920Z,1008.29
2019-01-14T06:51:37.017Z,1008.36
2019-01-14T06:52:46.140Z,1008.33
2019-01-14T06:53:55.018Z,1008.36
2019-01-14T06:55:04.117Z,1008.4
2019-01-14T06:56:13.211Z,1008.34
2019-01-14T06:57:22.310Z,1008.37
2019-01-14T06:58:31.124Z,1008.41
2019-01-14T06:59:41.035Z,1008.43
2019-01-14T07:00:49.989Z,1008.55
2019-01-14T07:01:59.061Z,1008.44
2019-01-14T07:03:08.171Z,1008.48
2019-01-14T07:04:17.279Z,1008.45
2019-01-14T07:05:26.212Z,1008.55
2019-01-14T07:06:35.585Z,1008.61
2019-01-14T07:07:44.394Z,1008.67
2019-01-14T07:08:59.759Z,1008.66
2019-01-14T07:10:09.119Z,1008.67
2019-01-14T07:11:18.314Z,1008.6
2019-01-14T07:12:27.131Z,1008.62
2019-01-14T07:13:35.943Z,1008.7
2019-01-14T07:14:45.052Z,1008.81
2019-01-14T07:15:53.859Z,1008.74
2019-01-14T07:17:03.472Z,1008.73
2019-01-14T07:18:12.308Z,1008.74
2019-01-14T07:19:21.385Z,1008.8
2019-01-14T07:20:30.187Z,1008.9
2019-01-14T07:21:39.026Z,1008.87
2019-01-14T07:22:47.987Z,1008.92
2019-01-14T07:23:57.619Z,1008.91
2019-01-14T07:25:06.712Z,1008.85
2019-01-14T07:26:15.790Z,1008.89
2019-01-14T07:27:24.858Z,1008.93
2019-01-14T07:28:33.754Z,1009.05
2019-01-14T07:29:42.582Z,1009.08
2019-01-14T07:30:51.671Z,1009.15
2019-01-14T07:32:01.046Z,1009.17
2019-01-14T07:33:09.866Z,1009.26
2019-01-14T07:34:18.742Z,1009.36
2019-01-14T07:35:28.105Z,1009.32
2019-01-14T07:36:37.172Z,1009.35
2019-01-14T07:37:46.262Z,1009.3
2019-01-14T07:38:56.131Z,1009.42
2019-01-14T07:40:05.398Z,1009.43
2019-01-14T07:41:14.276Z,1009.4
2019-01-14T07:42:23.412Z,1009.38
2019-01-14T07:43:32.219Z,1009.38
2019-01-14T07:44:41.287Z,1009.41
2019-01-14T07:45:51.876Z,1009.38
2019-01-14T07:47:00.778Z,1009.42
2019-01-14T07:48:09.846Z,1009.34
2019-01-14T07:49:18.668Z,1009.35
2019-01-14T07:50:27.476Z,1009.33
2019-01-14T07:51:36.667Z,1009.34
2019-01-14T07:52:46.068Z,1009.19
2019-01-14T07:53:55.413Z,1009.29
2019-01-14T07:55:04.527Z,1009.29
2019-01-14T07:56:13.635Z,1009.33
2019-01-14T07:57:22.799Z,1009.32
2019-01-14T07:58:31.618Z,1009.37
2019-01-14T07:59:40.442Z,1009.34
2019-01-14T08:00:49.533Z,1009.34
2019-01-14T08:01:58.623Z,1009.32
2019-01-14T08:03:07.519Z,1009.33
2019-01-14T08:04:16.613Z,1009.37
2019-01-14T08:05:25.438Z,1009.39
2019-01-14T08:06:34.518Z,1009.37
2019-01-14T08:07:43.607Z,1009.43
2019-01-14T08:08:53.017Z,1009.45
2019-01-14T08:10:01.846Z,1009.48
2019-01-14T08:11:10.938Z,1009.42
2019-01-14T08:12:20.065Z,1009.47
2019-01-14T08:13:28.889Z,1009.46
2019-01-14T08:14:38.329Z,1009.61
2019-01-14T08:15:49.760Z,1009.64
2019-01-14T08:16:58.838Z,1009.59
2019-01-14T08:18:07.922Z,1009.6
2019-01-14T08:19:17.012Z,1009.6
2019-01-14T08:20:26.118Z,1009.7
2019-01-14T08:21:35.216Z,1009.75
2019-01-14T08:22:44.041Z,1009.63
2019-01-14T08:23:53.399Z,1009.62
2019-01-14T08:25:02.773Z,1009.63
2019-01-14T08:26:12.221Z,1009.66
2019-01-14T08:27:21.311Z,1009.75
2019-01-14T08:28:30.399Z,1009.74
2019-01-14T08:29:39.223Z,1009.83
2019-01-14T08:30:48.055Z,1009.81
2019-01-14T08:31:57.193Z,1009.74
2019-01-14T08:33:06.021Z,1009.75
2019-01-14T08:34:15.633Z,1009.73
2019-01-14T08:35:24.456Z,1009.68
2019-01-14T08:36:33.598Z,1009.71
2019-01-14T08:37:42.457Z,1009.68
2019-01-14T08:38:51.791Z,1009.7
2019-01-14T08:40:01.156Z,1009.68
2019-01-14T08:41:10.228Z,1009.69
2019-01-14T08:42:19.309Z,1009.72
2019-01-14T08:43:28.498Z,1009.71
2019-01-14T08:44:37.322Z,1009.74
2019-01-14T08:45:46.159Z,1009.77
2019-01-14T08:46:55.003Z,1009.76
2019-01-14T08:48:03.826Z,1009.82
2019-01-14T08:49:13.008Z,1009.83
2019-01-14T08:50:22.124Z,1009.84
2019-01-14T08:51:30.946Z,1009.84
2019-01-14T08:52:40.049Z,1009.76
2019-01-14T08:53:48.871Z,1009.79
2019-01-14T08:54:57.805Z,1009.9
2019-01-14T08:56:06.884Z,1009.96
2019-01-14T08:57:15.972Z,1009.9
2019-01-14T08:58:25.066Z,1009.86
2019-01-14T08:59:34.140Z,1009.89
2019-01-14T09:00:43.341Z,1009.89
2019-01-14T09:01:52.238Z,1009.92
2019-01-14T09:03:01.921Z,1009.93
2019-01-14T09:04:11.040Z,1009.93
2019-01-14T09:05:32.534Z,1010.01
2019-01-14T09:06:41.751Z,1010.02
2019-01-14T09:07:50.567Z,1010.1
2019-01-14T09:08:59.399Z,1010.03
2019-01-14T09:10:08.231Z,1010.01
2019-01-14T09:11:17.350Z,1010.07
2019-01-14T09:12:26.238Z,1010.09
2019-01-14T09:13:35.876Z,1010.03
2019-01-14T09:14:45.228Z,1010.11
2019-01-14T09:15:54.060Z,1010.27
2019-01-14T09:17:02.903Z,1010.27
2019-01-14T09:18:12.011Z,1010.33
2019-01-14T09:19:21.357Z,1010.35
2019-01-14T09:20:30.236Z,1010.4
2019-01-14T09:21:39.576Z,1010.42
2019-01-14T09:22:48.389Z,1010.48
2019-01-14T09:23:57.577Z,1010.53
2019-01-14T09:25:06.410Z,1010.5
2019-01-14T09:26:15.271Z,1010.47
2019-01-14T09:27:24.409Z,1010.46
2019-01-14T09:28:33.789Z,1010.45
2019-01-14T09:29:42.951Z,1010.51
2019-01-14T09:30:52.309Z,1010.49
2019-01-14T09:32:01.658Z,1010.59
2019-01-14T09:33:10.756Z,1010.52
2019-01-14T09:34:20.125Z,1010.71
2019-01-14T09:35:29.844Z,1010.63
2019-01-14T09:36:38.971Z,1010.91
2019-01-14T09:37:48.299Z,1010.71
2019-01-14T09:38:57.110Z,1010.87
2019-01-14T09:40:05.934Z,1010.96
2019-01-14T09:41:14.840Z,1010.87
2019-01-14T09:42:27.808Z,1010.79
2019-01-14T09:43:36.896Z,1010.57
2019-01-14T09:44:45.711Z,1010.5
2019-01-14T09:45:54.774Z,1010.48
2019-01-14T09:47:03.628Z,1010.39
2019-01-14T09:48:12.985Z,1010.36
2019-01-14T09:49:22.327Z,1010.25
2019-01-14T09:50:31.419Z,1010.22
2019-01-14T09:51:40.294Z,1010.29
2019-01-14T09:52:49.479Z,1010.26
2019-01-14T09:53:58.312Z,1010.23
2019-01-14T09:55:07.119Z,1010.27
2019-01-14T09:56:16.183Z,1010.27
2019-01-14T09:57:25.279Z,1010.22
2019-01-14T09:58:35.293Z,1010.18
2019-01-14T09:59:44.631Z,1010.25
2019-01-14T10:00:53.961Z,1010.3
2019-01-14T10:02:03.319Z,1010.33
2019-01-14T10:03:12.412Z,1010.41
2019-01-14T10:04:21.809Z,1010.37
2019-01-14T10:05:31.153Z,1010.43
2019-01-14T10:06:40.265Z,1010.41
2019-01-14T10:07:49.103Z,1010.41
2019-01-14T10:08:57.916Z,1010.48
2019-01-14T10:10:08.846Z,1010.47
2019-01-14T10:11:17.925Z,1010.72
2019-01-14T10:12:27.016Z,1010.63
2019-01-14T10:13:35.872Z,1010.74
2019-01-14T10:14:45.308Z,1010.74
2019-01-14T10:15:54.225Z,1010.76
2019-01-14T10:17:03.313Z,1010.76
2019-01-14T10:18:12.390Z,1010.74
2019-01-14T10:19:21.216Z,1010.75
2019-01-14T10:20:30.622Z,1010.76
2019-01-14T10:21:39.769Z,1010.69
2019-01-14T10:22:48.856Z,1010.73
2019-01-14T10:23:57.948Z,1010.68
2019-01-14T10:25:06.769Z,1010.7
2019-01-14T10:26:16.398Z,1010.79
2019-01-14T10:27:25.596Z,1010.76
2019-01-14T10:28:34.409Z,1010.71
2019-01-14T10:29:43.493Z,1010.68
2019-01-14T10:30:52.560Z,1010.67
2019-01-14T10:32:01.668Z,1010.71
2019-01-14T10:33:10.546Z,1010.75
2019-01-14T10:34:19.886Z,1010.8
2019-01-14T10:35:28.946Z,1010.81
2019-01-14T10:36:38.039Z,1010.84
2019-01-14T10:37:47.132Z,1010.83
2019-01-14T10:38:56.314Z,1010.89
2019-01-14T10:40:05.373Z,1010.85
2019-01-14T10:41:14.197Z,1010.8
2019-01-14T10:42:22.997Z,1010.74
2019-01-14T10:43:31.831Z,1010.73
2019-01-14T10:44:40.966Z,1010.81
2019-01-14T10:45:50.061Z,1010.76
2019-01-14T10:46:59.146Z,1010.77
2019-01-14T10:48:08.275Z,1010.81
2019-01-14T10:49:17.620Z,1010.74
2019-01-14T10:50:26.536Z,1010.76
2019-01-14T10:51:35.637Z,1010.89
2019-01-14T10:52:44.762Z,1010.66
2019-01-14T10:53:54.168Z,1010.83
2019-01-14T10:55:02.976Z,1010.82
2019-01-14T10:56:19.270Z,1010.76
2019-01-14T10:57:28.388Z,1010.8
2019-01-14T10:58:37.745Z,1010.74
2019-01-14T10:59:46.577Z,1010.76
2019-01-14T11:00:55.932Z,1010.75
2019-01-14T11:02:05.586Z,1010.76
2019-01-14T11:03:14.953Z,1010.79
2019-01-14T11:04:24.049Z,1010.86
2019-01-14T11:05:32.865Z,1010.97
2019-01-14T11:06:41.781Z,1010.99
2019-01-14T11:07:50.960Z,1010.98
2019-01-14T11:09:05.621Z,1011.1
2019-01-14T11:10:15.317Z,1011.16
2019-01-14T11:11:24.162Z,1011.25
2019-01-14T11:12:32.990Z,1011.37
2019-01-14T11:13:41.916Z,1011.33
2019-01-14T11:14:50.739Z,1011.48
2019-01-14T11:16:03.471Z,1011.46
2019-01-14T11:17:12.604Z,1011.53
2019-01-14T11:18:21.442Z,1011.45
2019-01-14T11:19:30.608Z,1011.47
2019-01-14T11:20:39.431Z,1011.35
2019-01-14T11:21:48.531Z,1011.3
2019-01-14T11:22:57.921Z,1011.31
2019-01-14T11:24:07.306Z,1011.2
2019-01-14T11:25:16.239Z,1011.13
2019-01-14T11:26:25.312Z,1011.1
2019-01-14T11:27:34.135Z,1011.13
2019-01-14T11:28:43.203Z,1010.97
2019-01-14T11:29:52.296Z,1011.04
2019-01-14T11:31:01.403Z,1011.15
2019-01-14T11:32:10.234Z,1011.09
2019-01-14T11:33:19.306Z,1011.11
2019-01-14T11:34:28.647Z,1011.14
2019-01-14T11:35:37.719Z,1011.11
2019-01-14T11:36:46.639Z,1011.14
2019-01-14T11:37:55.994Z,1011.15
2019-01-14T11:39:05.431Z,1011.18
2019-01-14T11:40:14.260Z,1011.19
2019-01-14T11:41:23.346Z,1011.11
2019-01-14T11:42:32.281Z,1011.16
2019-01-14T11:43:41.650Z,1011.16
2019-01-14T11:44:50.986Z,1011.14
2019-01-14T11:46:00.096Z,1011.17
2019-01-14T11:47:09.210Z,1011.25
2019-01-14T11:48:18.642Z,1011.29
2019-01-14T11:49:27.991Z,1011.25
2019-01-14T11:50:36.809Z,1011.23
2019-01-14T11:51:45.643Z,1011.16
2019-01-14T11:52:54.703Z,1011.3
2019-01-14T11:54:04.111Z,1011.39
2019-01-14T11:55:13.203Z,1011.46
2019-01-14T11:56:22.032Z,1011.69
2019-01-14T11:57:31.393Z,1011.36
2019-01-14T11:58:40.784Z,1011.62
2019-01-14T11:59:50.177Z,1011.69
2019-01-14T12:00:59.769Z,1011.69
2019-01-14T12:02:08.582Z,1011.82
2019-01-14T12:03:18.226Z,1011.78
2019-01-14T12:04:27.318Z,1011.84
2019-01-14T12:05:36.512Z,1011.87
2019-01-14T12:06:46.166Z,1011.9
2019-01-14T12:07:55.000Z,1011.81
2019-01-14T12:09:04.365Z,1011.76
2019-01-14T12:10:18.989Z,1011.72
2019-01-14T12:11:28.144Z,1011.63
2019-01-14T12:12:37.536Z,1011.64
2019-01-14T12:13:46.614Z,1011.62
2019-01-14T12:14:55.427Z,1011.64
2019-01-14T12:16:04.505Z,1011.65
2019-01-14T12:17:13.458Z,1011.65
2019-01-14T12:18:22.277Z,1011.66
2019-01-14T12:19:31.103Z,1011.66
2019-01-14T12:20:39.932Z,1011.72
2019-01-14T12:21:49.036Z,1011.62
2019-01-14T12:22:57.958Z,1011.66
2019-01-14T12:24:07.323Z,1011.63
2019-01-14T12:25:16.706Z,1011.71
2019-01-14T12:26:26.986Z,1011.71
2019-01-14T12:27:36.096Z,1011.78
2019-01-14T12:28:45.304Z,1011.85
2019-01-14T12:29:54.134Z,1011.8
2019-01-14T12:31:02.967Z,1011.78
2019-01-14T12:32:12.069Z,1011.84
2019-01-14T12:33:20.890Z,1011.85
2019-01-14T12:34:29.976Z,1011.94
2019-01-14T12:35:38.792Z,1012.01
2019-01-14T12:36:47.905Z,1011.92
2019-01-14T12:37:58.784Z,1011.98
2019-01-14T12:39:07.601Z,1011.94
2019-01-14T12:40:25.250Z,1012.03
2019-01-14T12:41:34.447Z,1011.92
2019-01-14T12:42:43.287Z,1011.96
2019-01-14T12:43:52.641Z,1012.1
2019-01-14T12:45:01.527Z,1012.01
2019-01-14T12:46:10.716Z,1012.19
2019-01-14T12:47:19.554Z,1012.28
2019-01-14T12:48:28.900Z,1012.17
2019-01-14T12:49:37.813Z,1012.36
2019-01-14T12:50:46.631Z,1012.41
2019-01-14T12:51:56.033Z,1012.36
2019-01-14T12:53:06.091Z,1012.37
2019-01-14T12:54:15.176Z,1012.34
2019-01-14T12:55:24.001Z,1012.36
2019-01-14T12:56:33.333Z,1012.31
2019-01-14T12:57:42.258Z,1012.34
2019-01-14T12:58:51.093Z,1012.31
2019-01-14T13:00:00.222Z,1012.34
2019-01-14T13:01:09.329Z,1012.28
2019-01-14T13:02:18.408Z,1012.41
2019-01-14T13:03:27.339Z,1012.41
2019-01-14T13:04:37.965Z,1012.33
2019-01-14T13:05:46.810Z,1012.34
2019-01-14T13:06:56.436Z,1012.36
2019-01-14T13:08:05.280Z,1012.3
2019-01-14T13:09:14.640Z,1012.41
2019-01-14T13:10:29.219Z,1012.29
2019-01-14T13:11:38.054Z,1012.42
2019-01-14T13:12:47.138Z,1012.33
2019-01-14T13:13:56.234Z,1012.4
2019-01-14T13:15:05.915Z,1012.44
2019-01-14T13:16:14.745Z,1012.4
2019-01-14T13:17:23.969Z,1012.48
2019-01-14T13:18:33.063Z,1012.49
2019-01-14T13:19:42.153Z,1012.52
2019-01-14T13:20:51.328Z,1012.43
2019-01-14T13:22:00.163Z,1012.58
2019-01-14T13:23:08.986Z,1012.47
2019-01-14T13:24:17.825Z,1012.54
2019-01-14T13:25:27.158Z,1012.64
2019-01-14T13:26:36.357Z,1012.61
2019-01-14T13:27:45.182Z,1012.59
2019-01-14T13:28:54.289Z,1012.62
2019-01-14T13:30:03.417Z,1012.54
2019-01-14T13:31:12.519Z,1012.6
2019-01-14T13:32:21.457Z,1012.72
2019-01-14T13:33:30.557Z,1012.72
2019-01-14T13:34:39.422Z,1012.66
2019-01-14T13:35:51.886Z,1012.79
2019-01-14T13:37:00.714Z,1012.81
2019-01-14T13:38:10.046Z,1012.86
2019-01-14T13:39:19.429Z,1012.84
2019-01-14T13:40:34.330Z,1012.97
2019-01-14T13:41:43.133Z,1012.94
2019-01-14T13:42:52.198Z,1012.96
2019-01-14T13:44:01.170Z,1012.86
2019-01-14T13:45:10.287Z,1012.99
2019-01-14T13:46:26.078Z,1013.03
2019-01-14T13:47:35.385Z,1012.97
2019-01-14T13:48:44.224Z,1012.91
2019-01-14T13:49:53.100Z,1013
2019-01-14T13:51:01.946Z,1012.98
2019-01-14T13:52:11.044Z,1013.04
2019-01-14T13:53:20.379Z,1013.13
2019-01-14T13:54:29.208Z,1013.19
2019-01-14T13:55:38.116Z,1013.22
2019-01-14T13:56:47.208Z,1013.28
2019-01-14T13:57:59.820Z,1013.3
2019-01-14T13:59:09.171Z,1013.31
2019-01-14T14:00:18.236Z,1013.38
2019-01-14T14:01:27.186Z,1013.43